Time;durP1;ratioP1;P1;durP2;ratioP2;P2;SDS_P1;SDS_P2;PMS_P1;PMS_P2;Temp;Humidity;BMP_temperature;BMP_pressure;BME280_temperature;BME280_humidity;BME280_pressure;Samples;Min_cycle;Max_cycle;Signal;HPM_P1;HPM_P2
2021/06/15 00:01:19;;;;;;;2.40;2.13;;;18.60;99.90;;;;;;5114296;28;20443;-68
2021/06/15 00:03:44;;;;;;;2.10;2.00;;;18.60;99.90;;;;;;5114232;28;20177;-68
2021/06/15 00:06:10;;;;;;;2.67;2.00;;;18.60;99.90;;;;;;5112828;28;20232;-67
2021/06/15 00:08:35;;;;;;;2.03;1.90;;;18.60;99.90;;;;;;5114212;28;20267;-69
2021/06/15 00:11:02;;;;;;;3.33;2.40;;;18.70;99.90;;;;;;5114086;28;20196;-66
2021/06/15 00:13:27;;;;;;;2.10;1.90;;;18.70;99.90;;;;;;5114164;28;20217;-68
2021/06/15 00:15:53;;;;;;;2.10;1.90;;;18.70;99.90;;;;;;5113891;28;20448;-67
2021/06/15 00:18:19;;;;;;;2.60;2.13;;;18.60;99.90;;;;;;5114080;28;20172;-68
2021/06/15 00:20:47;;;;;;;2.83;2.00;;;18.60;99.90;;;;;;5113769;28;20625;-69
2021/06/15 00:23:13;;;;;;;2.17;2.03;;;18.60;99.90;;;;;;5113038;28;20457;-66
2021/06/15 00:25:39;;;;;;;2.40;2.20;;;18.60;99.90;;;;;;5117113;28;20474;-68
2021/06/15 00:28:05;;;;;;;3.50;2.00;;;18.60;99.90;;;;;;5118780;28;20559;-68
2021/06/15 00:30:31;;;;;;;3.50;2.77;;;18.60;99.90;;;;;;5118209;28;20500;-67
2021/06/15 00:32:57;;;;;;;3.03;1.83;;;18.60;99.90;;;;;;5118640;28;20571;-68
2021/06/15 00:35:22;;;;;;;1.87;1.77;;;18.60;99.90;;;;;;5118047;28;20432;-68
2021/06/15 00:37:49;;;;;;;3.90;2.30;;;18.60;99.90;;;;;;5118454;28;20460;-69
2021/06/15 00:40:15;;;;;;;4.67;2.60;;;18.60;99.90;;;;;;5116726;28;20275;-67
2021/06/15 00:42:40;;;;;;;2.43;2.23;;;18.60;99.90;;;;;;5118409;28;20508;-67
2021/06/15 00:45:09;;;;;;;2.03;1.93;;;18.60;99.90;;;;;;5117860;28;20644;-67
2021/06/15 00:47:36;;;;;;;5.63;2.20;;;18.60;99.90;;;;;;5118173;28;20223;-68
2021/06/15 00:50:04;;;;;;;2.27;2.07;;;18.50;99.90;;;;;;5116431;28;20400;-67
2021/06/15 00:52:30;;;;;;;2.33;2.10;;;18.50;99.90;;;;;;5118036;28;20459;-67
2021/06/15 00:54:59;;;;;;;6.30;2.43;;;18.50;99.90;;;;;;5117614;28;20406;-69
2021/06/15 00:57:26;;;;;;;2.77;1.97;;;18.50;99.90;;;;;;5116608;28;20422;-67
2021/06/15 00:59:56;;;;;;;2.60;2.40;;;18.50;99.90;;;;;;5116294;28;20413;-67
2021/06/15 01:02:22;;;;;;;10.00;3.77;;;18.60;99.90;;;;;;5118050;28;20418;-66
2021/06/15 01:04:48;;;;;;;2.60;1.87;;;18.60;99.90;;;;;;5116149;28;20405;-68
2021/06/15 01:07:23;;;;;;;4.93;2.27;;;18.50;99.90;;;;;;5117706;28;20482;-66
2021/06/15 01:10:17;;;;;;;3.03;2.50;;;18.40;99.90;;;;;;5117417;28;20393;-67
2021/06/15 01:12:48;;;;;;;2.07;1.90;;;18.30;99.90;;;;;;5117887;28;20480;-67
2021/06/15 01:15:32;;;;;;;2.20;2.00;;;18.30;99.90;;;;;;5116039;28;20464;-68
2021/06/15 01:18:04;;;;;;;2.70;2.07;;;18.30;99.90;;;;;;5117738;28;20428;-69
2021/06/15 01:20:35;;;;;;;2.37;2.20;;;18.30;99.90;;;;;;5117155;28;20955;-67
2021/06/15 01:23:22;;;;;;;4.50;3.30;;;18.10;99.90;;;;;;5116413;28;20535;-68
2021/06/15 01:26:07;;;;;;;3.90;2.23;;;17.90;99.90;;;;;;5115858;28;20856;-68
2021/06/15 01:28:44;;;;;;;2.87;2.40;;;17.90;99.90;;;;;;5115998;28;20392;-69
2021/06/15 01:31:26;;;;;;;3.20;2.73;;;17.90;99.90;;;;;;5114458;28;20444;-67
2021/06/15 01:33:57;;;;;;;5.43;2.73;;;17.90;99.90;;;;;;5115878;28;20887;-67
2021/06/15 01:36:27;;;;;;;3.40;2.30;;;17.90;99.90;;;;;;5115341;28;20786;-67
2021/06/15 01:38:57;;;;;;;2.67;2.47;;;17.80;99.90;;;;;;5115752;28;20443;-67
2021/06/15 01:41:30;;;;;;;2.67;2.30;;;17.70;99.90;;;;;;5114343;28;20444;-68
2021/06/15 01:44:01;;;;;;;3.50;2.63;;;17.70;99.90;;;;;;5115682;28;20385;-66
2021/06/15 01:46:32;;;;;;;2.70;2.50;;;17.50;99.90;;;;;;5115559;28;20811;-67
2021/06/15 01:49:04;;;;;;;2.60;2.40;;;17.60;99.90;;;;;;5115573;28;20384;-68
2021/06/15 01:51:31;;;;;;;3.20;2.67;;;17.40;99.90;;;;;;5115594;28;20428;-67
2021/06/15 01:54:00;;;;;;;3.10;2.90;;;17.10;99.90;;;;;;5115463;28;20917;-67
2021/06/15 01:56:28;;;;;;;3.70;2.30;;;17.10;99.90;;;;;;5113878;28;20479;-66
2021/06/15 01:58:56;;;;;;;3.17;2.87;;;17.00;99.90;;;;;;5115414;28;20898;-68
2021/06/15 02:01:23;;;;;;;3.20;2.50;;;17.00;99.90;;;;;;5115414;28;20876;-67
2021/06/15 02:03:52;;;;;;;6.97;3.50;;;16.90;99.90;;;;;;5115295;28;20461;-67
2021/06/15 02:06:21;;;;;;;4.77;2.60;;;17.00;99.90;;;;;;5115271;28;20512;-66
2021/06/15 02:08:50;;;;;;;4.57;2.97;;;16.90;99.90;;;;;;5113889;28;20944;-67
2021/06/15 02:11:17;;;;;;;4.77;3.23;;;16.90;99.90;;;;;;5115316;28;20432;-68
2021/06/15 02:13:45;;;;;;;2.93;2.63;;;16.80;99.90;;;;;;5113860;28;20416;-69
2021/06/15 02:16:13;;;;;;;2.60;2.40;;;16.80;99.90;;;;;;5115130;28;20929;-67
2021/06/15 02:18:41;;;;;;;3.20;2.90;;;16.80;99.90;;;;;;5113844;28;20989;-67
2021/06/15 02:21:10;;;;;;;4.77;3.00;;;16.70;99.90;;;;;;5114406;27;119213;-67
2021/06/15 02:23:37;;;;;;;5.60;2.90;;;16.60;99.90;;;;;;5114703;28;20503;-67
2021/06/15 02:26:06;;;;;;;3.10;2.80;;;16.60;99.90;;;;;;5114451;28;20486;-68
2021/06/15 02:28:33;;;;;;;3.40;2.90;;;16.40;99.90;;;;;;5115985;28;20438;-67
2021/06/15 02:31:00;;;;;;;2.70;2.50;;;16.20;99.90;;;;;;5115785;28;20944;-68
2021/06/15 02:33:40;;;;;;;3.87;3.03;;;16.10;99.90;;;;;;5115883;28;20499;-67
2021/06/15 02:36:14;;;;;;;3.17;2.80;;;16.10;99.90;;;;;;5115674;28;20477;-66
2021/06/15 02:38:48;;;;;;;3.20;3.00;;;16.20;99.90;;;;;;5115816;28;20389;-67
2021/06/15 02:41:15;;;;;;;3.00;2.80;;;16.20;99.90;;;;;;5115520;28;20467;-67
2021/06/15 02:43:43;;;;;;;3.30;3.00;;;16.30;99.90;;;;;;5115619;28;20420;-68
2021/06/15 02:46:12;;;;;;;4.03;2.97;;;16.10;99.90;;;;;;5115365;28;20783;-68
2021/06/15 02:48:42;;;;;;;3.80;2.90;;;16.20;99.90;;;;;;5114832;28;20400;-68
2021/06/15 02:51:10;;;;;;;4.60;3.17;;;16.20;99.90;;;;;;5115280;28;20473;-66
2021/06/15 02:53:46;;;;;;;3.60;3.30;;;16.00;99.90;;;;;;5114141;28;20472;-67
2021/06/15 02:56:15;;;;;;;3.17;2.87;;;15.90;99.90;;;;;;5114015;28;20784;-69
2021/06/15 02:58:41;;;;;;;4.30;3.10;;;15.90;99.90;;;;;;5113974;28;20446;-68
2021/06/15 03:01:07;;;;;;;4.30;3.50;;;15.90;99.90;;;;;;5115173;28;20428;-67
2021/06/15 03:03:36;;;;;;;3.83;3.53;;;16.00;99.90;;;;;;5115325;28;20419;-69
2021/06/15 03:06:03;;;;;;;3.50;3.00;;;15.90;99.90;;;;;;5115010;28;20435;-67
2021/06/15 03:08:29;;;;;;;3.97;3.67;;;16.00;99.90;;;;;;5115099;28;20416;-68
2021/06/15 03:10:55;;;;;;;3.27;2.90;;;16.00;99.90;;;;;;5114914;28;20776;-68
2021/06/15 03:13:53;;;;;;;5.10;3.30;;;16.00;99.90;;;;;;5115138;28;20188;-67
2021/06/15 03:16:24;;;;;;;4.93;3.17;;;16.00;99.90;;;;;;5113625;28;20699;-68
2021/06/15 03:19:07;;;;;;;7.30;3.30;;;16.00;99.90;;;;;;5114983;28;20410;-67
2021/06/15 03:21:39;;;;;;;4.07;3.67;;;16.20;99.90;;;;;;5114908;28;20839;-67
2021/06/15 03:24:10;;;;;;;8.60;3.93;;;16.20;99.90;;;;;;5114871;28;20411;-66
2021/06/15 03:26:58;;;;;;;3.60;3.30;;;16.10;99.90;;;;;;5114763;28;20811;-68
2021/06/15 03:29:27;;;;;;;6.13;3.93;;;16.30;99.90;;;;;;5114933;28;20435;-68
2021/06/15 03:31:59;;;;;;;5.90;3.33;;;16.40;99.90;;;;;;5114903;28;20432;-67
2021/06/15 03:34:29;;;;;;;4.03;3.30;;;16.40;99.90;;;;;;5114800;28;20829;-68
2021/06/15 03:36:57;;;;;;;8.90;3.50;;;16.50;99.90;;;;;;5114725;28;20432;-66
2021/06/15 03:39:24;;;;;;;5.70;3.73;;;16.50;99.90;;;;;;5113309;28;20990;-67
2021/06/15 03:41:53;;;;;;;3.63;3.20;;;16.40;99.90;;;;;;5114670;28;20439;-67
2021/06/15 03:44:20;;;;;;;4.00;2.90;;;16.40;99.90;;;;;;5113222;28;20437;-68
2021/06/15 03:46:49;;;;;;;3.20;3.00;;;16.50;99.90;;;;;;5114157;28;20844;-67
2021/06/15 03:49:16;;;;;;;6.47;4.00;;;16.50;99.90;;;;;;5114392;28;20941;-68
2021/06/15 03:51:50;;;;;;;3.37;3.10;;;16.50;99.90;;;;;;5114569;28;20449;-67
2021/06/15 03:54:17;;;;;;;3.50;3.20;;;16.40;99.90;;;;;;5114462;28;20536;-67
2021/06/15 03:56:55;;;;;;;3.37;3.07;;;16.50;99.90;;;;;;5114323;28;20428;-67
2021/06/15 03:59:26;;;;;;;6.17;3.40;;;16.40;99.90;;;;;;5114266;28;20376;-67
2021/06/15 04:01:55;;;;;;;5.47;3.43;;;16.40;99.90;;;;;;5114253;28;20432;-68
2021/06/15 04:04:22;;;;;;;3.43;3.10;;;16.50;99.90;;;;;;5114291;28;20929;-68
2021/06/15 04:06:54;;;;;;;3.77;3.47;;;16.50;99.90;;;;;;5114204;28;20470;-66
2021/06/15 04:09:22;;;;;;;7.10;3.37;;;16.50;99.90;;;;;;5112806;28;20432;-66
2021/06/15 04:11:49;;;;;;;3.87;3.50;;;16.60;99.90;;;;;;5112531;28;20436;-67
2021/06/15 04:14:16;;;;;;;3.60;3.03;;;16.70;99.90;;;;;;5114130;28;20404;-67
2021/06/15 04:16:43;;;;;;;3.90;2.90;;;16.70;99.90;;;;;;5114119;28;20439;-66
2021/06/15 04:19:14;;;;;;;3.53;3.23;;;16.70;99.90;;;;;;5114063;28;20404;-69
2021/06/15 04:21:44;;;;;;;3.57;3.27;;;16.70;99.90;;;;;;5112564;28;20479;-68
2021/06/15 04:24:12;;;;;;;4.47;3.73;;;16.80;99.90;;;;;;5113775;28;20793;-66
2021/06/15 04:26:38;;;;;;;3.97;3.60;;;16.90;99.90;;;;;;5113765;28;20500;-67
2021/06/15 04:29:07;;;;;;;3.77;3.40;;;16.90;99.90;;;;;;5113961;28;20400;-68
2021/06/15 04:31:35;;;;;;;3.00;2.80;;;16.80;99.90;;;;;;5113792;28;20823;-68
2021/06/15 04:34:02;;;;;;;3.60;3.10;;;17.00;99.90;;;;;;5114003;28;20400;-67
2021/06/15 04:36:31;;;;;;;3.40;3.10;;;17.00;99.90;;;;;;5113827;28;20464;-68
2021/06/15 04:39:06;;;;;;;4.50;3.90;;;17.00;99.90;;;;;;5113940;28;20742;-67
2021/06/15 04:41:38;;;;;;;3.30;3.00;;;17.00;99.90;;;;;;5112430;28;20799;-67
2021/06/15 04:44:07;;;;;;;5.00;3.33;;;17.10;99.90;;;;;;5113718;28;20432;-67
2021/06/15 04:46:39;;;;;;;3.03;2.73;;;17.20;99.90;;;;;;5113769;28;20500;-69
2021/06/15 04:49:32;;;;;;;4.63;3.37;;;17.30;99.90;;;;;;5113837;28;20915;-68
2021/06/15 04:52:00;;;;;;;3.30;2.97;;;17.40;99.90;;;;;;5113798;28;20428;-68
2021/06/15 04:54:40;;;;;;;3.57;3.27;;;17.50;99.90;;;;;;5113641;28;20483;-67
2021/06/15 04:57:09;;;;;;;3.27;2.97;;;17.60;99.90;;;;;;5113890;28;20435;-69
2021/06/15 04:59:37;;;;;;;4.10;3.00;;;17.70;99.90;;;;;;5113624;28;20449;-67
2021/06/15 05:02:04;;;;;;;4.40;3.30;;;17.80;99.90;;;;;;5113887;28;20428;-67
2021/06/15 05:04:32;;;;;;;3.93;3.40;;;17.90;99.90;;;;;;5113701;28;20901;-67
2021/06/15 05:06:58;;;;;;;5.53;3.53;;;17.90;99.90;;;;;;5113428;28;20511;-67
2021/06/15 05:09:25;;;;;;;3.17;2.97;;;18.10;99.90;;;;;;5112436;28;20553;-69
2021/06/15 05:11:53;;;;;;;3.37;3.17;;;18.10;99.90;;;;;;5115574;28;20487;-67
2021/06/15 05:14:21;;;;;;;4.60;3.03;;;18.30;99.90;;;;;;5117393;28;20497;-67
2021/06/15 05:16:46;;;;;;;3.37;2.77;;;18.40;99.90;;;;;;5117210;28;20444;-67
2021/06/15 05:19:12;;;;;;;3.10;2.80;;;18.40;99.90;;;;;;5117398;28;20409;-68
2021/06/15 05:21:50;;;;;;;3.40;2.80;;;18.50;99.90;;;;;;5117267;28;20235;-68
2021/06/15 05:24:47;;;;;;;4.70;4.10;;;18.60;99.90;;;;;;5117111;28;20204;-66
2021/06/15 05:27:14;;;;;;;4.50;3.30;;;18.60;99.90;;;;;;5117404;28;20459;-68
2021/06/15 05:29:39;;;;;;;9.20;3.50;;;18.70;99.90;;;;;;5117159;28;20409;-67
2021/06/15 05:32:07;;;;;;;5.67;3.43;;;18.80;99.90;;;;;;5115561;28;20478;-66
2021/06/15 05:34:37;;;;;;;5.43;3.40;;;19.00;99.90;;;;;;5115639;28;20187;-66
2021/06/15 05:37:04;;;;;;;4.60;2.93;;;19.10;99.90;;;;;;5116979;28;20913;-67
2021/06/15 05:39:32;;;;;;;4.50;3.03;;;19.20;99.90;;;;;;5115997;27;20450;-68
2021/06/15 05:41:57;;;;;;;3.17;2.87;;;19.40;99.90;;;;;;5115078;28;20974;-67
2021/06/15 05:44:23;;;;;;;4.00;3.40;;;19.30;99.90;;;;;;5116682;28;20458;-68
2021/06/15 05:46:49;;;;;;;4.90;3.00;;;19.40;99.90;;;;;;5114866;28;20220;-68
2021/06/15 05:49:14;;;;;;;4.07;3.73;;;19.50;99.90;;;;;;5114192;28;20410;-67
2021/06/15 05:51:40;;;;;;;3.40;3.10;;;19.50;99.90;;;;;;5113837;28;20322;-67
2021/06/15 05:54:07;;;;;;;5.10;3.23;;;19.50;99.90;;;;;;5115094;27;20186;-68
2021/06/15 05:56:33;;;;;;;3.23;2.90;;;19.60;99.90;;;;;;5116075;28;20190;-67
2021/06/15 05:58:59;;;;;;;3.00;2.70;;;19.70;99.90;;;;;;5116396;28;20465;-67
2021/06/15 06:01:26;;;;;;;3.30;3.00;;;19.70;99.90;;;;;;5116465;28;20434;-68
2021/06/15 06:04:00;;;;;;;5.03;3.50;;;19.80;99.90;;;;;;5116340;28;20407;-68
2021/06/15 06:09:11;;;;;;;4.20;2.77;;;20.20;99.90;;;;;;5116103;28;20436;-68
2021/06/15 06:11:36;;;;;;;5.17;3.33;;;20.50;99.90;;;;;;5116259;27;20781;-68
2021/06/15 06:14:02;;;;;;;5.50;2.80;;;20.60;99.90;;;;;;5116080;28;20241;-69
2021/06/15 06:16:31;;;;;;;5.13;3.03;;;21.00;99.90;;;;;;5116002;28;20198;-67
2021/06/15 06:18:58;;;;;;;3.43;3.13;;;21.30;99.90;;;;;;5114683;28;20270;-69
2021/06/15 06:21:24;;;;;;;4.80;3.40;;;21.80;99.90;;;;;;5114499;28;20475;-68
2021/06/15 06:23:49;;;;;;;4.70;3.30;;;22.00;99.90;;;;;;5111949;28;20415;-67
2021/06/15 06:26:15;;;;;;;4.00;3.00;;;22.20;99.90;;;;;;5114403;28;21001;-69
2021/06/15 06:28:41;;;;;;;4.10;3.50;;;22.40;99.90;;;;;;5114644;28;20266;-69
2021/06/15 06:31:06;;;;;;;6.27;3.13;;;22.40;99.90;;;;;;5114556;28;20203;-68
2021/06/15 06:33:33;;;;;;;3.20;2.77;;;22.60;99.90;;;;;;5115718;28;20194;-68
2021/06/15 06:35:59;;;;;;;7.43;2.90;;;22.60;99.90;;;;;;5115623;28;20191;-68
2021/06/15 06:38:25;;;;;;;6.80;2.97;;;22.70;99.90;;;;;;5114761;28;20988;-68
2021/06/15 06:40:50;;;;;;;3.10;2.83;;;22.90;99.90;;;;;;5115450;28;20223;-70
2021/06/15 06:43:16;;;;;;;4.10;3.07;;;22.80;99.90;;;;;;5115535;28;20228;-68
2021/06/15 06:45:42;;;;;;;6.53;2.83;;;22.80;99.90;;;;;;5115415;28;20211;-68
2021/06/15 06:48:08;;;;;;;5.20;3.80;;;22.80;99.90;;;;;;5114883;28;20298;-68
2021/06/15 06:50:34;;;;;;;4.87;3.00;;;22.90;99.90;;;;;;5115195;28;20188;-68
2021/06/15 06:53:01;;;;;;;3.17;2.83;;;23.00;99.90;;;;;;5114893;28;20430;-67
2021/06/15 06:55:28;;;;;;;6.67;2.80;;;23.20;99.90;;;;;;5112305;28;20425;-68
2021/06/15 06:57:55;;;;;;;3.23;3.00;;;23.20;99.90;;;;;;5113774;28;20965;-68
2021/06/15 07:00:21;;;;;;;4.73;3.13;;;23.20;99.90;;;;;;5114764;28;20500;-66
2021/06/15 07:02:49;;;;;;;4.43;2.20;;;23.30;99.90;;;;;;5114855;28;20415;-68
2021/06/15 07:05:16;;;;;;;7.33;2.60;;;23.40;99.90;;;;;;5113057;28;20945;-68
2021/06/15 07:07:42;;;;;;;2.63;2.43;;;23.40;99.90;;;;;;5106429;28;20986;-67
2021/06/15 07:10:08;;;;;;;3.23;2.50;;;23.40;99.90;;;;;;5114825;28;20432;-68
2021/06/15 07:12:33;;;;;;;3.40;2.37;;;23.40;99.90;;;;;;5114439;28;20259;-67
2021/06/15 07:15:00;;;;;;;2.77;2.47;;;23.50;99.90;;;;;;5113694;28;20488;-68
2021/06/15 07:17:25;;;;;;;4.83;2.70;;;23.70;99.90;;;;;;5114090;28;20176;-68
2021/06/15 07:19:51;;;;;;;3.80;3.40;;;23.80;99.90;;;;;;5100494;28;20944;-67
2021/06/15 07:22:17;;;;;;;2.70;2.50;;;23.80;99.90;;;;;;5105548;28;20228;-67
2021/06/15 07:24:43;;;;;;;3.13;2.90;;;23.70;99.90;;;;;;5112744;28;20187;-70
2021/06/15 07:27:08;;;;;;;3.67;2.80;;;23.70;99.90;;;;;;5112631;28;20284;-68
2021/06/15 07:29:34;;;;;;;3.40;2.90;;;23.70;99.90;;;;;;5112664;28;20460;-68
2021/06/15 07:32:00;;;;;;;4.13;2.53;;;23.90;99.90;;;;;;5111039;27;20203;-69
2021/06/15 07:34:25;;;;;;;3.37;2.80;;;24.10;99.90;;;;;;5109800;27;20274;-68
2021/06/15 07:36:51;;;;;;;2.83;2.23;;;24.00;99.90;;;;;;5109668;27;20225;-67
2021/06/15 07:39:17;;;;;;;5.00;3.27;;;24.00;99.90;;;;;;5107531;27;20636;-69
2021/06/15 07:41:43;;;;;;;3.63;2.40;;;24.20;99.90;;;;;;5107584;28;20199;-68
2021/06/15 07:44:09;;;;;;;4.47;2.57;;;24.30;99.90;;;;;;5100851;28;20181;-70
2021/06/15 07:46:35;;;;;;;3.50;3.10;;;24.40;99.80;;;;;;5100746;28;20848;-67
2021/06/15 07:49:00;;;;;;;4.27;3.13;;;24.50;99.20;;;;;;5102212;27;20187;-69
2021/06/15 07:51:26;;;;;;;6.23;2.60;;;24.60;98.90;;;;;;5102255;28;20244;-67
2021/06/15 07:53:52;;;;;;;2.73;2.17;;;24.60;99.60;;;;;;5099735;27;20666;-68
2021/06/15 07:56:18;;;;;;;3.03;2.27;;;24.70;99.60;;;;;;5108155;28;20953;-67
2021/06/15 07:58:43;;;;;;;2.73;2.20;;;24.70;99.60;;;;;;5108219;28;20278;-68
2021/06/15 08:01:09;;;;;;;2.90;2.70;;;24.90;99.40;;;;;;5104730;28;20203;-68
2021/06/15 08:03:35;;;;;;;3.17;2.40;;;25.00;99.20;;;;;;5105854;28;20177;-69
2021/06/15 08:06:01;;;;;;;2.40;2.13;;;25.00;99.00;;;;;;5103778;28;20192;-69
2021/06/15 08:08:27;;;;;;;6.17;2.10;;;25.00;99.00;;;;;;5101600;28;20216;-70
2021/06/15 08:10:54;;;;;;;1.97;1.87;;;25.00;98.40;;;;;;5103719;28;20502;-69
2021/06/15 08:13:19;;;;;;;2.63;2.30;;;25.00;98.40;;;;;;5103520;28;20179;-69
2021/06/15 08:15:48;;;;;;;6.13;3.63;;;25.10;98.60;;;;;;5096529;28;20444;-67
2021/06/15 08:18:15;;;;;;;2.67;2.47;;;25.10;98.30;;;;;;5098141;28;20192;-68
2021/06/15 08:20:43;;;;;;;2.87;2.20;;;25.20;98.50;;;;;;5110468;28;20798;-67
2021/06/15 08:23:09;;;;;;;2.47;2.30;;;25.30;98.60;;;;;;5110642;28;20961;-68
2021/06/15 08:25:34;;;;;;;2.63;2.40;;;25.30;97.50;;;;;;5110428;28;20445;-67
2021/06/15 08:28:00;;;;;;;2.80;2.40;;;25.30;97.90;;;;;;5110915;28;20668;-67
2021/06/15 08:30:26;;;;;;;2.20;1.93;;;25.30;98.00;;;;;;5106717;28;20240;-67
2021/06/15 08:32:52;;;;;;;2.77;2.17;;;25.30;98.00;;;;;;5111486;28;20217;-67
2021/06/15 08:35:18;;;;;;;2.40;2.20;;;25.20;97.70;;;;;;5111591;28;20524;-67
2021/06/15 08:37:44;;;;;;;3.07;2.03;;;25.20;97.20;;;;;;5106082;28;20590;-68
2021/06/15 08:40:10;;;;;;;2.97;2.00;;;25.20;97.60;;;;;;5110778;28;20210;-68
2021/06/15 08:42:38;;;;;;;3.30;2.50;;;25.40;97.60;;;;;;5111245;28;20432;-67
2021/06/15 08:45:06;;;;;;;2.17;1.80;;;25.50;97.40;;;;;;5111881;28;20406;-68
2021/06/15 08:47:31;;;;;;;3.20;2.13;;;25.50;97.60;;;;;;5115042;28;20474;-69
2021/06/15 08:49:57;;;;;;;4.53;2.30;;;25.60;97.60;;;;;;5110537;28;20792;-68
2021/06/15 08:52:26;;;;;;;3.13;2.10;;;25.70;97.70;;;;;;5113905;27;20232;-68
2021/06/15 08:54:53;;;;;;;5.00;2.13;;;25.80;97.40;;;;;;5114316;28;20180;-68
2021/06/15 08:57:21;;;;;;;6.43;2.40;;;25.90;96.60;;;;;;5111530;28;20508;-69
2021/06/15 08:59:47;;;;;;;2.53;2.17;;;25.80;96.90;;;;;;5117313;27;20492;-67
2021/06/15 09:02:13;;;;;;;1.93;1.77;;;26.00;96.70;;;;;;5111958;28;20446;-68
2021/06/15 09:04:39;;;;;;;2.60;1.97;;;26.10;96.70;;;;;;5109690;27;20186;-69
2021/06/15 09:07:04;;;;;;;4.00;2.50;;;26.20;96.60;;;;;;5113218;28;20718;-66
2021/06/15 09:09:44;;;;;;;2.00;1.83;;;26.30;96.60;;;;;;5114786;28;20580;-68
2021/06/15 09:12:12;;;;;;;1.90;1.80;;;26.20;96.60;;;;;;5112087;27;20286;-67
2021/06/15 09:14:53;;;;;;;2.10;2.00;;;26.40;96.40;;;;;;5117336;27;20871;-68
2021/06/15 09:17:28;;;;;;;4.33;1.77;;;26.40;96.00;;;;;;5127726;27;20443;-69
2021/06/15 09:20:07;;;;;;;2.10;1.70;;;26.40;96.00;;;;;;5114528;27;20535;-67
2021/06/15 09:22:34;;;;;;;2.13;1.90;;;26.60;95.70;;;;;;5117605;27;20471;-67
2021/06/15 09:25:01;;;;;;;3.10;2.00;;;26.60;95.60;;;;;;5124500;27;20499;-68
2021/06/15 09:27:33;;;;;;;3.20;1.80;;;26.60;95.50;;;;;;5115938;27;20509;-69
2021/06/15 09:30:00;;;;;;;1.70;1.30;;;26.60;95.70;;;;;;5109730;27;20453;-67
2021/06/15 09:32:29;;;;;;;2.23;1.70;;;26.60;95.40;;;;;;5114140;28;20438;-68
2021/06/15 09:35:06;;;;;;;2.20;2.00;;;26.70;95.60;;;;;;5127413;27;20547;-67
2021/06/15 09:37:38;;;;;;;2.20;1.77;;;26.80;95.40;;;;;;5118057;27;20443;-69
2021/06/15 09:40:16;;;;;;;2.80;1.90;;;26.80;95.30;;;;;;5104160;28;20655;-68
2021/06/15 09:43:02;;;;;;;2.60;1.70;;;26.80;94.40;;;;;;5117277;27;20827;-67
2021/06/15 09:45:28;;;;;;;1.93;1.83;;;26.80;95.00;;;;;;5111263;27;20447;-69
2021/06/15 09:48:14;;;;;;;1.87;1.77;;;26.80;95.60;;;;;;5108798;27;20464;-69
2021/06/15 09:50:41;;;;;;;1.60;1.50;;;26.80;94.90;;;;;;5114026;27;20222;-69
2021/06/15 09:53:22;;;;;;;3.30;1.80;;;26.90;94.70;;;;;;5110401;28;20777;-67
2021/06/15 09:55:49;;;;;;;2.73;1.90;;;26.80;94.20;;;;;;5115842;27;20496;-69
2021/06/15 09:58:16;;;;;;;2.37;1.60;;;26.80;94.30;;;;;;5101390;28;20412;-68
2021/06/15 10:00:41;;;;;;;2.10;1.90;;;26.90;94.30;;;;;;5110123;28;20811;-69
2021/06/15 10:03:14;;;;;;;2.00;1.63;;;27.00;94.20;;;;;;5111731;28;20440;-68
2021/06/15 10:05:40;;;;;;;2.70;1.60;;;27.00;93.20;;;;;;5108245;28;20219;-68
2021/06/15 10:08:08;;;;;;;1.70;1.53;;;27.10;93.50;;;;;;5114332;27;20953;-67
2021/06/15 10:10:47;;;;;;;2.10;1.73;;;27.00;93.70;;;;;;5110825;28;20208;-69
2021/06/15 10:13:13;;;;;;;2.27;1.70;;;26.90;93.30;;;;;;5114351;28;20450;-68
2021/06/15 10:15:41;;;;;;;2.53;2.00;;;27.10;93.90;;;;;;5113245;27;20456;-68
2021/06/15 10:18:07;;;;;;;1.57;1.37;;;27.00;93.50;;;;;;5113233;28;20183;-68
2021/06/15 10:20:34;;;;;;;1.93;1.77;;;27.00;93.70;;;;;;5115556;27;20439;-68
2021/06/15 10:23:01;;;;;;;1.90;1.80;;;27.10;93.60;;;;;;5115915;28;20800;-67
2021/06/15 10:25:29;;;;;;;3.33;1.43;;;27.10;93.10;;;;;;5114863;28;20439;-67
2021/06/15 10:27:56;;;;;;;1.53;1.43;;;27.10;93.60;;;;;;5115905;28;20474;-68
2021/06/15 10:30:34;;;;;;;3.03;1.97;;;27.10;93.60;;;;;;5110559;28;20436;-68
2021/06/15 10:33:12;;;;;;;1.47;1.37;;;27.30;93.40;;;;;;5110808;28;20442;-68
2021/06/15 10:35:53;;;;;;;2.70;1.37;;;27.30;92.90;;;;;;5111643;28;21040;-69
2021/06/15 10:38:39;;;;;;;6.10;2.03;;;27.10;92.00;;;;;;5105482;28;20500;-67
2021/06/15 10:41:05;;;;;;;2.87;1.50;;;27.30;93.10;;;;;;5113099;28;20443;-68
2021/06/15 10:43:37;;;;;;;3.20;1.50;;;27.20;92.10;;;;;;5114330;28;20423;-69
2021/06/15 10:46:06;;;;;;;2.03;1.80;;;27.40;92.90;;;;;;5112771;27;20440;-67
2021/06/15 10:48:40;;;;;;;1.60;1.50;;;27.50;92.20;;;;;;5113407;28;20548;-67
2021/06/15 10:51:19;;;;;;;2.63;1.70;;;27.40;92.50;;;;;;5113524;28;20449;-68
2021/06/15 10:53:45;;;;;;;2.00;1.50;;;27.70;92.60;;;;;;5108989;27;21877;-67
2021/06/15 10:56:13;;;;;;;2.77;1.40;;;27.80;91.80;;;;;;5118238;27;20463;-68
2021/06/15 10:58:39;;;;;;;1.67;1.37;;;27.70;92.30;;;;;;5114533;27;20530;-69
2021/06/15 11:01:15;;;;;;;2.33;1.60;;;27.60;92.30;;;;;;5123260;27;20973;-67
2021/06/15 11:03:51;;;;;;;2.40;1.57;;;27.60;92.40;;;;;;5121430;27;20799;-69
2021/06/15 11:06:35;;;;;;;2.10;2.00;;;27.60;92.50;;;;;;5114876;27;20455;-68
2021/06/15 11:09:06;;;;;;;1.80;1.50;;;27.30;92.30;;;;;;5119236;27;20431;-69
2021/06/15 11:11:33;;;;;;;3.00;1.53;;;27.50;92.10;;;;;;5117677;27;20455;-68
2021/06/15 11:14:11;;;;;;;3.80;1.67;;;27.60;91.80;;;;;;5107543;28;20465;-68
2021/06/15 11:16:51;;;;;;;1.30;1.20;;;27.70;92.10;;;;;;5120966;27;21030;-68
2021/06/15 11:19:20;;;;;;;1.70;1.60;;;27.70;91.40;;;;;;5130385;27;20435;-68
2021/06/15 11:21:46;;;;;;;1.77;1.27;;;27.80;91.90;;;;;;5131190;27;20467;-68
2021/06/15 11:24:36;;;;;;;1.33;1.23;;;27.90;90.50;;;;;;5110623;28;20477;-69
2021/06/15 11:27:13;;;;;;;2.60;1.37;;;27.90;91.30;;;;;;5110180;28;20524;-67
2021/06/15 11:29:41;;;;;;;2.27;1.80;;;27.90;91.80;;;;;;5111054;28;20420;-69
2021/06/15 11:32:13;;;;;;;1.70;1.60;;;27.90;91.60;;;;;;5112395;28;20781;-68
2021/06/15 11:34:40;;;;;;;1.37;1.27;;;27.80;91.20;;;;;;5113401;28;20400;-68
2021/06/15 11:37:32;;;;;;;2.30;1.30;;;27.80;90.00;;;;;;5113480;28;20867;-67
2021/06/15 11:40:28;;;;;;;1.70;1.57;;;28.00;91.40;;;;;;5117437;27;20434;-68
2021/06/15 11:42:56;;;;;;;1.73;1.60;;;28.10;91.00;;;;;;5100980;28;20968;-67
2021/06/15 11:45:29;;;;;;;3.37;1.50;;;27.90;90.40;;;;;;5110213;28;20981;-69
2021/06/15 11:48:14;;;;;;;1.73;1.50;;;28.00;91.00;;;;;;5113711;28;20464;-68
2021/06/15 11:50:44;;;;;;;2.90;1.20;;;28.10;90.70;;;;;;5117503;27;20442;-68
2021/06/15 11:53:16;;;;;;;2.83;1.30;;;27.90;90.30;;;;;;5110549;27;20776;-68
2021/06/15 11:55:54;;;;;;;1.70;1.60;;;28.20;90.60;;;;;;5110431;28;20543;-68
2021/06/15 11:58:28;;;;;;;2.30;1.90;;;28.20;89.60;;;;;;5123420;27;20447;-69
2021/06/15 12:01:03;;;;;;;1.90;1.43;;;28.20;90.10;;;;;;5109460;27;20448;-69
2021/06/15 12:03:34;;;;;;;1.77;1.23;;;28.10;90.50;;;;;;5107859;28;20431;-69
2021/06/15 12:06:00;;;;;;;3.90;1.37;;;28.10;90.50;;;;;;5106272;28;20519;-68
2021/06/15 12:08:38;;;;;;;1.70;1.60;;;28.10;90.40;;;;;;5109662;28;20596;-70
2021/06/15 12:11:08;;;;;;;5.90;1.57;;;28.10;90.80;;;;;;5101763;28;20534;-69
2021/06/15 12:13:35;;;;;;;2.13;1.47;;;28.10;90.70;;;;;;5109802;28;20428;-68
2021/06/15 12:16:09;;;;;;;2.03;1.50;;;28.00;88.90;;;;;;5110543;28;20785;-68
2021/06/15 12:18:41;;;;;;;1.70;1.60;;;28.10;90.40;;;;;;5098286;28;20421;-67
2021/06/15 12:21:16;;;;;;;2.43;1.50;;;28.20;90.20;;;;;;5113566;27;20471;-68
2021/06/15 12:23:47;;;;;;;1.80;1.70;;;28.40;89.70;;;;;;5110931;28;20420;-69
2021/06/15 12:26:36;;;;;;;2.63;1.63;;;28.50;88.60;;;;;;5118068;27;20777;-69
2021/06/15 12:29:10;;;;;;;1.63;1.50;;;28.50;90.00;;;;;;5109452;28;20428;-67
2021/06/15 12:31:37;;;;;;;2.40;1.37;;;28.30;90.00;;;;;;5098514;28;20500;-68
2021/06/15 12:34:04;;;;;;;2.67;1.40;;;28.40;89.60;;;;;;5105335;28;20424;-68
2021/06/15 12:36:35;;;;;;;2.17;1.57;;;28.50;89.30;;;;;;5101003;28;20450;-68
2021/06/15 12:39:16;;;;;;;3.00;1.37;;;28.50;89.10;;;;;;5106340;28;20914;-67
2021/06/15 12:41:46;;;;;;;2.23;1.97;;;28.40;90.00;;;;;;5113351;27;20986;-68
2021/06/15 12:44:13;;;;;;;1.77;1.60;;;28.40;87.30;;;;;;5114941;28;20407;-69
2021/06/15 12:46:40;;;;;;;1.70;1.60;;;28.50;88.90;;;;;;5114212;27;20812;-67
2021/06/15 12:49:20;;;;;;;6.93;1.40;;;28.50;89.40;;;;;;5114146;27;20471;-69
2021/06/15 12:51:52;;;;;;;3.53;1.70;;;28.40;89.60;;;;;;5115258;27;20839;-67
2021/06/15 12:54:24;;;;;;;2.00;1.60;;;28.50;89.60;;;;;;5114698;27;20419;-68
2021/06/15 12:57:05;;;;;;;1.87;1.60;;;28.50;87.50;;;;;;5113790;28;20936;-68
2021/06/15 12:59:36;;;;;;;1.90;1.67;;;28.50;89.70;;;;;;5113018;28;20502;-67
2021/06/15 13:02:18;;;;;;;3.73;1.90;;;28.50;88.30;;;;;;5114008;27;20451;-69
2021/06/15 13:04:52;;;;;;;3.33;1.43;;;28.50;89.10;;;;;;5126755;27;20442;-68